sensor_id;sensor_type;location;lat;lon;timestamp;pressure;altitude;pressure_sealevel;temperature;humidity
60642;BME280;46837;52.446;-1.930;2022-08-21T00:00:12;100105.17;;;16.85;68.37
60642;BME280;46837;52.446;-1.930;2022-08-21T00:01:21;100106.38;;;16.87;68.28
60642;BME280;46837;52.446;-1.930;2022-08-21T00:02:16;100106.62;;;16.91;68.14
60642;BME280;46837;52.446;-1.930;2022-08-21T00:03:09;100104.86;;;16.88;68.27
60642;BME280;46837;52.446;-1.930;2022-08-21T00:04:09;100102.19;;;16.88;68.25
60642;BME280;46837;52.446;-1.930;2022-08-21T00:05:09;100101.62;;;16.87;68.31
60642;BME280;46837;52.446;-1.930;2022-08-21T00:06:09;100101.64;;;16.86;68.36
60642;BME280;46837;52.446;-1.930;2022-08-21T00:07:09;100099.71;;;16.88;68.22
60642;BME280;46837;52.446;-1.930;2022-08-21T00:08:09;100095.71;;;16.88;68.24
60642;BME280;46837;52.446;-1.930;2022-08-21T00:09:09;100099.71;;;16.85;68.42
60642;BME280;46837;52.446;-1.930;2022-08-21T00:10:09;100098.81;;;16.82;68.46
60642;BME280;46837;52.446;-1.930;2022-08-21T00:11:09;100099.38;;;16.85;68.37
60642;BME280;46837;52.446;-1.930;2022-08-21T00:12:09;100097.57;;;16.85;68.31
60642;BME280;46837;52.446;-1.930;2022-08-21T00:13:09;100096.20;;;16.85;68.33
60642;BME280;46837;52.446;-1.930;2022-08-21T00:14:09;100097.44;;;16.81;68.43
60642;BME280;46837;52.446;-1.930;2022-08-21T00:15:09;100090.46;;;16.83;68.37
60642;BME280;46837;52.446;-1.930;2022-08-21T00:16:09;100091.72;;;16.86;68.28
60642;BME280;46837;52.446;-1.930;2022-08-21T00:17:09;100091.01;;;16.85;68.27
60642;BME280;46837;52.446;-1.930;2022-08-21T00:18:09;100087.14;;;16.84;68.33
60642;BME280;46837;52.446;-1.930;2022-08-21T00:19:09;100085.48;;;16.79;68.53
60642;BME280;46837;52.446;-1.930;2022-08-21T00:20:12;100083.91;;;16.80;68.48
60642;BME280;46837;52.446;-1.930;2022-08-21T00:21:10;100085.35;;;16.80;68.48
60642;BME280;46837;52.446;-1.930;2022-08-21T00:22:09;100083.80;;;16.80;68.41
60642;BME280;46837;52.446;-1.930;2022-08-21T00:23:09;100081.87;;;16.82;68.37
60642;BME280;46837;52.446;-1.930;2022-08-21T00:24:09;100085.92;;;16.86;68.19
60642;BME280;46837;52.446;-1.930;2022-08-21T00:25:09;100083.81;;;16.82;68.34
60642;BME280;46837;52.446;-1.930;2022-08-21T00:26:09;100084.86;;;16.81;68.40
60642;BME280;46837;52.446;-1.930;2022-08-21T00:27:09;100082.46;;;16.81;68.41
60642;BME280;46837;52.446;-1.930;2022-08-21T00:28:09;100078.27;;;16.83;68.32
60642;BME280;46837;52.446;-1.930;2022-08-21T00:29:09;100079.71;;;16.81;68.39
60642;BME280;46837;52.446;-1.930;2022-08-21T00:30:10;100078.78;;;16.82;68.32
60642;BME280;46837;52.446;-1.930;2022-08-21T00:31:09;100078.77;;;16.80;68.33
60642;BME280;46837;52.446;-1.930;2022-08-21T00:32:09;100078.12;;;16.80;68.39
60642;BME280;46837;52.446;-1.930;2022-08-21T00:33:09;100076.89;;;16.81;68.30
60642;BME280;46837;52.446;-1.930;2022-08-21T00:34:09;100073.49;;;16.75;68.53
60642;BME280;46837;52.446;-1.930;2022-08-21T00:35:10;100079.29;;;16.68;68.83
60642;BME280;46837;52.446;-1.930;2022-08-21T00:36:09;100081.28;;;16.68;68.80
60642;BME280;46837;52.446;-1.930;2022-08-21T00:37:09;100080.64;;;16.70;68.66
60642;BME280;46837;52.446;-1.930;2022-08-21T00:38:09;100079.54;;;16.70;68.61
60642;BME280;46837;52.446;-1.930;2022-08-21T00:39:09;100080.62;;;16.68;68.70
60642;BME280;46837;52.446;-1.930;2022-08-21T00:40:10;100078.65;;;16.65;68.79
60642;BME280;46837;52.446;-1.930;2022-08-21T00:41:09;100076.84;;;16.65;68.83
60642;BME280;46837;52.446;-1.930;2022-08-21T00:42:09;100074.70;;;16.64;68.86
60642;BME280;46837;52.446;-1.930;2022-08-21T00:43:09;100076.52;;;16.62;68.91
60642;BME280;46837;52.446;-1.930;2022-08-21T00:44:11;100072.53;;;16.60;68.93
60642;BME280;46837;52.446;-1.930;2022-08-21T00:45:09;100070.79;;;16.60;68.95
60642;BME280;46837;52.446;-1.930;2022-08-21T00:46:09;100069.69;;;16.59;68.93
60642;BME280;46837;52.446;-1.930;2022-08-21T00:47:09;100075.67;;;16.60;68.87
60642;BME280;46837;52.446;-1.930;2022-08-21T00:48:09;100073.91;;;16.56;69.05
60642;BME280;46837;52.446;-1.930;2022-08-21T00:49:10;100074.91;;;16.55;69.08
60642;BME280;46837;52.446;-1.930;2022-08-21T00:50:10;100071.39;;;16.57;69.01
60642;BME280;46837;52.446;-1.930;2022-08-21T00:51:11;100067.67;;;16.53;69.16
60642;BME280;46837;52.446;-1.930;2022-08-21T00:52:13;100067.46;;;16.55;69.07
60642;BME280;46837;52.446;-1.930;2022-08-21T00:53:09;100064.43;;;16.56;68.99
60642;BME280;46837;52.446;-1.930;2022-08-21T00:54:09;100068.37;;;16.54;69.09
60642;BME280;46837;52.446;-1.930;2022-08-21T00:55:09;100069.55;;;16.49;69.25
60642;BME280;46837;52.446;-1.930;2022-08-21T00:56:09;100063.21;;;16.51;69.25
60642;BME280;46837;52.446;-1.930;2022-08-21T00:57:13;100066.72;;;16.52;69.22
60642;BME280;46837;52.446;-1.930;2022-08-21T00:58:09;100068.49;;;16.52;69.24
60642;BME280;46837;52.446;-1.930;2022-08-21T00:59:09;100070.31;;;16.52;69.20
60642;BME280;46837;52.446;-1.930;2022-08-21T01:00:11;100071.09;;;16.51;69.26
60642;BME280;46837;52.446;-1.930;2022-08-21T01:01:09;100069.73;;;16.46;69.44
60642;BME280;46837;52.446;-1.930;2022-08-21T01:02:09;100068.82;;;16.46;69.36
60642;BME280;46837;52.446;-1.930;2022-08-21T01:03:11;100066.88;;;16.45;69.48
60642;BME280;46837;52.446;-1.930;2022-08-21T01:04:09;100067.76;;;16.45;69.52
60642;BME280;46837;52.446;-1.930;2022-08-21T01:05:09;100072.20;;;16.43;69.55
60642;BME280;46837;52.446;-1.930;2022-08-21T01:06:09;100070.70;;;16.34;69.96
60642;BME280;46837;52.446;-1.930;2022-08-21T01:07:09;100070.10;;;16.36;69.91
60642;BME280;46837;52.446;-1.930;2022-08-21T01:08:09;100067.48;;;16.40;69.75
60642;BME280;46837;52.446;-1.930;2022-08-21T01:09:09;100070.88;;;16.36;69.96
60642;BME280;46837;52.446;-1.930;2022-08-21T01:10:09;100071.38;;;16.36;69.95
60642;BME280;46837;52.446;-1.930;2022-08-21T01:11:09;100071.30;;;16.37;69.96
60642;BME280;46837;52.446;-1.930;2022-08-21T01:12:09;100074.23;;;16.36;69.96
60642;BME280;46837;52.446;-1.930;2022-08-21T01:13:09;100073.77;;;16.38;69.91
60642;BME280;46837;52.446;-1.930;2022-08-21T01:14:09;100071.82;;;16.34;70.10
60642;BME280;46837;52.446;-1.930;2022-08-21T01:15:09;100070.96;;;16.35;69.99
60642;BME280;46837;52.446;-1.930;2022-08-21T01:16:09;100073.79;;;16.29;70.29
60642;BME280;46837;52.446;-1.930;2022-08-21T01:17:09;100075.86;;;16.33;70.20
60642;BME280;46837;52.446;-1.930;2022-08-21T01:18:10;100076.64;;;16.32;70.15
60642;BME280;46837;52.446;-1.930;2022-08-21T01:19:09;100072.88;;;16.33;70.13
60642;BME280;46837;52.446;-1.930;2022-08-21T01:20:11;100075.71;;;16.37;69.94
60642;BME280;46837;52.446;-1.930;2022-08-21T01:21:14;100074.66;;;16.37;69.96
60642;BME280;46837;52.446;-1.930;2022-08-21T01:22:09;100078.07;;;16.38;69.98
60642;BME280;46837;52.446;-1.930;2022-08-21T01:23:09;100078.30;;;16.37;69.96
60642;BME280;46837;52.446;-1.930;2022-08-21T01:24:09;100078.21;;;16.34;70.14
60642;BME280;46837;52.446;-1.930;2022-08-21T01:25:09;100074.31;;;16.33;70.18
60642;BME280;46837;52.446;-1.930;2022-08-21T01:26:09;100074.91;;;16.31;70.24
60642;BME280;46837;52.446;-1.930;2022-08-21T01:27:09;100075.45;;;16.34;70.14
60642;BME280;46837;52.446;-1.930;2022-08-21T01:28:11;100071.70;;;16.32;70.20
60642;BME280;46837;52.446;-1.930;2022-08-21T01:29:15;100073.42;;;16.33;70.19
60642;BME280;46837;52.446;-1.930;2022-08-21T01:30:11;100071.62;;;16.30;70.30
60642;BME280;46837;52.446;-1.930;2022-08-21T01:31:09;100073.72;;;16.30;70.37
60642;BME280;46837;52.446;-1.930;2022-08-21T01:32:14;100073.65;;;16.31;70.31
60642;BME280;46837;52.446;-1.930;2022-08-21T01:33:09;100073.66;;;16.30;70.31
60642;BME280;46837;52.446;-1.930;2022-08-21T01:34:09;100071.83;;;16.28;70.39
60642;BME280;46837;52.446;-1.930;2022-08-21T01:35:09;100071.70;;;16.26;70.49
60642;BME280;46837;52.446;-1.930;2022-08-21T01:36:09;100073.30;;;16.29;70.41
60642;BME280;46837;52.446;-1.930;2022-08-21T01:37:09;100074.62;;;16.29;70.35
60642;BME280;46837;52.446;-1.930;2022-08-21T01:38:09;100072.96;;;16.29;70.33
60642;BME280;46837;52.446;-1.930;2022-08-21T01:39:09;100072.12;;;16.28;70.45
60642;BME280;46837;52.446;-1.930;2022-08-21T01:40:09;100072.53;;;16.26;70.51
60642;BME280;46837;52.446;-1.930;2022-08-21T01:41:09;100074.22;;;16.30;70.39
60642;BME280;46837;52.446;-1.930;2022-08-21T01:42:09;100074.78;;;16.27;70.53
60642;BME280;46837;52.446;-1.930;2022-08-21T01:43:09;100076.39;;;16.32;70.32
60642;BME280;46837;52.446;-1.930;2022-08-21T01:44:09;100076.13;;;16.33;70.33
60642;BME280;46837;52.446;-1.930;2022-08-21T01:45:09;100073.71;;;16.33;70.30
60642;BME280;46837;52.446;-1.930;2022-08-21T01:46:09;100075.56;;;16.32;70.35
60642;BME280;46837;52.446;-1.930;2022-08-21T01:47:09;100074.07;;;16.27;70.60
60642;BME280;46837;52.446;-1.930;2022-08-21T01:48:09;100071.70;;;16.25;70.73
60642;BME280;46837;52.446;-1.930;2022-08-21T01:49:09;100076.12;;;16.26;70.62
60642;BME280;46837;52.446;-1.930;2022-08-21T01:50:11;100073.72;;;16.30;70.43
60642;BME280;46837;52.446;-1.930;2022-08-21T01:51:09;100073.77;;;16.28;70.51
60642;BME280;46837;52.446;-1.930;2022-08-21T01:52:09;100074.26;;;16.25;70.60
60642;BME280;46837;52.446;-1.930;2022-08-21T01:53:09;100072.19;;;16.27;70.59
60642;BME280;46837;52.446;-1.930;2022-08-21T01:54:09;100076.09;;;16.28;70.56
60642;BME280;46837;52.446;-1.930;2022-08-21T01:55:09;100073.07;;;16.27;70.61
60642;BME280;46837;52.446;-1.930;2022-08-21T01:56:10;100068.87;;;16.30;70.54
60642;BME280;46837;52.446;-1.930;2022-08-21T01:57:09;100075.32;;;16.28;70.57
60642;BME280;46837;52.446;-1.930;2022-08-21T01:58:09;100075.07;;;16.21;70.86
60642;BME280;46837;52.446;-1.930;2022-08-21T01:59:09;100078.68;;;16.20;70.97
60642;BME280;46837;52.446;-1.930;2022-08-21T02:00:09;100080.48;;;16.23;70.87
60642;BME280;46837;52.446;-1.930;2022-08-21T02:01:09;100082.89;;;16.26;70.71
60642;BME280;46837;52.446;-1.930;2022-08-21T02:02:09;100085.33;;;16.23;70.78
60642;BME280;46837;52.446;-1.930;2022-08-21T02:03:09;100085.93;;;16.24;70.75
60642;BME280;46837;52.446;-1.930;2022-08-21T02:04:09;100087.21;;;16.21;70.92
60642;BME280;46837;52.446;-1.930;2022-08-21T02:05:10;100085.84;;;16.20;70.90
60642;BME280;46837;52.446;-1.930;2022-08-21T02:06:13;100090.99;;;16.19;70.96
60642;BME280;46837;52.446;-1.930;2022-08-21T02:07:09;100085.39;;;16.21;70.91
60642;BME280;46837;52.446;-1.930;2022-08-21T02:08:09;100090.54;;;16.22;70.88
60642;BME280;46837;52.446;-1.930;2022-08-21T02:09:09;100089.50;;;16.19;71.06
60642;BME280;46837;52.446;-1.930;2022-08-21T02:10:09;100089.59;;;16.21;70.99
60642;BME280;46837;52.446;-1.930;2022-08-21T02:11:09;100085.45;;;16.23;70.83
60642;BME280;46837;52.446;-1.930;2022-08-21T02:12:09;100082.37;;;16.20;70.97
60642;BME280;46837;52.446;-1.930;2022-08-21T02:13:10;100080.91;;;16.16;71.17
60642;BME280;46837;52.446;-1.930;2022-08-21T02:14:13;100080.20;;;16.16;71.15
60642;BME280;46837;52.446;-1.930;2022-08-21T02:15:09;100078.25;;;16.19;71.00
60642;BME280;46837;52.446;-1.930;2022-08-21T02:16:09;100074.11;;;16.20;70.97
60642;BME280;46837;52.446;-1.930;2022-08-21T02:17:09;100071.31;;;16.17;71.14
60642;BME280;46837;52.446;-1.930;2022-08-21T02:18:09;100074.25;;;16.15;71.17
60642;BME280;46837;52.446;-1.930;2022-08-21T02:19:09;100074.95;;;16.17;71.11
60642;BME280;46837;52.446;-1.930;2022-08-21T02:20:09;100069.96;;;16.15;71.23
60642;BME280;46837;52.446;-1.930;2022-08-21T02:21:09;100068.49;;;16.12;71.33
60642;BME280;46837;52.446;-1.930;2022-08-21T02:22:10;100068.31;;;16.12;71.33
60642;BME280;46837;52.446;-1.930;2022-08-21T02:23:09;100068.02;;;16.14;71.29
60642;BME280;46837;52.446;-1.930;2022-08-21T02:24:09;100067.61;;;16.09;71.40
60642;BME280;46837;52.446;-1.930;2022-08-21T02:25:09;100069.48;;;16.07;71.55
60642;BME280;46837;52.446;-1.930;2022-08-21T02:26:09;100065.59;;;16.04;71.68
60642;BME280;46837;52.446;-1.930;2022-08-21T02:27:09;100069.60;;;16.01;71.86
60642;BME280;46837;52.446;-1.930;2022-08-21T02:28:12;100064.61;;;16.03;71.71
60642;BME280;46837;52.446;-1.930;2022-08-21T02:29:09;100070.44;;;16.06;71.56
60642;BME280;46837;52.446;-1.930;2022-08-21T02:30:11;100065.56;;;15.99;71.86
60642;BME280;46837;52.446;-1.930;2022-08-21T02:31:09;100060.96;;;16.03;71.82
60642;BME280;46837;52.446;-1.930;2022-08-21T02:32:09;100061.25;;;16.05;71.63
60642;BME280;46837;52.446;-1.930;2022-08-21T02:33:09;100056.93;;;16.06;71.58
60642;BME280;46837;52.446;-1.930;2022-08-21T02:34:09;100056.66;;;16.06;71.55
60642;BME280;46837;52.446;-1.930;2022-08-21T02:35:09;100059.30;;;16.08;71.51
60642;BME280;46837;52.446;-1.930;2022-08-21T02:36:09;100060.27;;;16.10;71.30
60642;BME280;46837;52.446;-1.930;2022-08-21T02:37:09;100053.39;;;16.11;71.25
60642;BME280;46837;52.446;-1.930;2022-08-21T02:38:10;100055.59;;;16.07;71.47
60642;BME280;46837;52.446;-1.930;2022-08-21T02:39:09;100053.50;;;16.09;71.43
60642;BME280;46837;52.446;-1.930;2022-08-21T02:40:09;100051.77;;;16.10;71.42
60642;BME280;46837;52.446;-1.930;2022-08-21T02:41:18;100051.79;;;16.09;71.38
60642;BME280;46837;52.446;-1.930;2022-08-21T02:42:09;100050.33;;;16.05;71.58
60642;BME280;46837;52.446;-1.930;2022-08-21T02:43:09;100050.00;;;16.03;71.66
60642;BME280;46837;52.446;-1.930;2022-08-21T02:44:09;100051.39;;;16.04;71.64
60642;BME280;46837;52.446;-1.930;2022-08-21T02:45:09;100052.18;;;16.07;71.52
60642;BME280;46837;52.446;-1.930;2022-08-21T02:46:09;100050.17;;;16.05;71.58
60642;BME280;46837;52.446;-1.930;2022-08-21T02:47:09;100051.61;;;16.02;71.73
60642;BME280;46837;52.446;-1.930;2022-08-21T02:48:10;100050.09;;;15.98;71.88
60642;BME280;46837;52.446;-1.930;2022-08-21T02:49:09;100051.55;;;16.00;71.78
60642;BME280;46837;52.446;-1.930;2022-08-21T02:50:09;100045.45;;;15.99;71.77
60642;BME280;46837;52.446;-1.930;2022-08-21T02:51:10;100042.78;;;15.92;72.01
60642;BME280;46837;52.446;-1.930;2022-08-21T02:52:09;100037.15;;;15.97;71.97
60642;BME280;46837;52.446;-1.930;2022-08-21T02:53:10;100041.79;;;15.92;72.11
60642;BME280;46837;52.446;-1.930;2022-08-21T02:54:09;100037.77;;;15.94;72.08
60642;BME280;46837;52.446;-1.930;2022-08-21T02:55:09;100038.84;;;15.97;71.92
60642;BME280;46837;52.446;-1.930;2022-08-21T02:56:09;100038.98;;;15.95;72.00
60642;BME280;46837;52.446;-1.930;2022-08-21T02:57:09;100040.24;;;15.93;72.13
60642;BME280;46837;52.446;-1.930;2022-08-21T02:58:09;100042.62;;;15.94;72.15
60642;BME280;46837;52.446;-1.930;2022-08-21T02:59:09;100041.67;;;15.97;71.90
60642;BME280;46837;52.446;-1.930;2022-08-21T03:00:09;100037.37;;;15.93;72.06
60642;BME280;46837;52.446;-1.930;2022-08-21T03:01:09;100037.69;;;15.96;72.03
60642;BME280;46837;52.446;-1.930;2022-08-21T03:02:09;100032.21;;;15.94;72.07
60642;BME280;46837;52.446;-1.930;2022-08-21T03:03:09;100035.17;;;15.95;72.03
60642;BME280;46837;52.446;-1.930;2022-08-21T03:04:09;100031.64;;;15.95;71.97
60642;BME280;46837;52.446;-1.930;2022-08-21T03:05:09;100032.61;;;15.96;71.90
60642;BME280;46837;52.446;-1.930;2022-08-21T03:06:10;100029.09;;;15.96;71.91
60642;BME280;46837;52.446;-1.930;2022-08-21T03:07:09;100026.01;;;15.96;71.92
60642;BME280;46837;52.446;-1.930;2022-08-21T03:08:10;100027.54;;;15.98;71.72
60642;BME280;46837;52.446;-1.930;2022-08-21T03:09:09;100027.90;;;15.97;71.83
60642;BME280;46837;52.446;-1.930;2022-08-21T03:10:09;100030.58;;;15.98;71.78
60642;BME280;46837;52.446;-1.930;2022-08-21T03:11:09;100030.05;;;15.97;71.87
60642;BME280;46837;52.446;-1.930;2022-08-21T03:12:09;100026.16;;;15.99;71.80
60642;BME280;46837;52.446;-1.930;2022-08-21T03:13:09;100026.67;;;15.93;72.02
60642;BME280;46837;52.446;-1.930;2022-08-21T03:14:09;100024.19;;;15.93;72.04
60642;BME280;46837;52.446;-1.930;2022-08-21T03:15:10;100027.48;;;15.96;71.96
60642;BME280;46837;52.446;-1.930;2022-08-21T03:16:09;100030.38;;;15.95;72.02
60642;BME280;46837;52.446;-1.930;2022-08-21T03:17:09;100027.94;;;15.97;71.97
60642;BME280;46837;52.446;-1.930;2022-08-21T03:18:09;100032.25;;;16.00;71.87
60642;BME280;46837;52.446;-1.930;2022-08-21T03:19:09;100031.71;;;16.00;71.95
60642;BME280;46837;52.446;-1.930;2022-08-21T03:20:09;100032.94;;;16.01;71.91
60642;BME280;46837;52.446;-1.930;2022-08-21T03:21:09;100032.87;;;16.02;71.88
60642;BME280;46837;52.446;-1.930;2022-08-21T03:22:09;100036.43;;;16.03;71.82
60642;BME280;46837;52.446;-1.930;2022-08-21T03:23:09;100030.81;;;16.03;71.83
60642;BME280;46837;52.446;-1.930;2022-08-21T03:24:09;100032.48;;;16.05;71.78
60642;BME280;46837;52.446;-1.930;2022-08-21T03:25:09;100028.60;;;16.06;71.74
60642;BME280;46837;52.446;-1.930;2022-08-21T03:26:09;100028.51;;;16.05;71.79
60642;BME280;46837;52.446;-1.930;2022-08-21T03:27:09;100031.77;;;16.04;71.89
60642;BME280;46837;52.446;-1.930;2022-08-21T03:28:13;100026.66;;;16.01;72.01
60642;BME280;46837;52.446;-1.930;2022-08-21T03:29:09;100022.86;;;16.04;71.83
60642;BME280;46837;52.446;-1.930;2022-08-21T03:30:09;100022.39;;;16.02;71.89
60642;BME280;46837;52.446;-1.930;2022-08-21T03:31:09;100019.28;;;16.06;71.72
60642;BME280;46837;52.446;-1.930;2022-08-21T03:32:09;100018.68;;;16.06;71.76
60642;BME280;46837;52.446;-1.930;2022-08-21T03:33:09;100017.96;;;16.06;71.80
60642;BME280;46837;52.446;-1.930;2022-08-21T03:34:09;100019.56;;;16.08;71.69
60642;BME280;46837;52.446;-1.930;2022-08-21T03:35:09;100018.98;;;16.04;71.84
60642;BME280;46837;52.446;-1.930;2022-08-21T03:36:09;100014.26;;;16.06;71.82
60642;BME280;46837;52.446;-1.930;2022-08-21T03:37:09;100014.15;;;16.06;71.85
60642;BME280;46837;52.446;-1.930;2022-08-21T03:38:09;100015.77;;;16.05;71.86
60642;BME280;46837;52.446;-1.930;2022-08-21T03:39:09;100016.70;;;16.06;71.88
60642;BME280;46837;52.446;-1.930;2022-08-21T03:40:09;100019.52;;;16.05;71.97
60642;BME280;46837;52.446;-1.930;2022-08-21T03:41:09;100014.44;;;16.05;71.90
60642;BME280;46837;52.446;-1.930;2022-08-21T03:42:09;100015.11;;;16.05;71.98
60642;BME280;46837;52.446;-1.930;2022-08-21T03:43:09;100012.15;;;15.99;72.20
60642;BME280;46837;52.446;-1.930;2022-08-21T03:44:09;100018.79;;;16.04;72.10
60642;BME280;46837;52.446;-1.930;2022-08-21T03:45:09;100012.75;;;16.02;72.14
60642;BME280;46837;52.446;-1.930;2022-08-21T03:46:09;100015.46;;;16.02;72.22
60642;BME280;46837;52.446;-1.930;2022-08-21T03:47:09;100015.23;;;16.04;72.11
60642;BME280;46837;52.446;-1.930;2022-08-21T03:48:09;100016.99;;;16.04;72.11
60642;BME280;46837;52.446;-1.930;2022-08-21T03:49:09;100016.32;;;16.05;72.11
60642;BME280;46837;52.446;-1.930;2022-08-21T03:50:09;100014.55;;;16.06;72.10
60642;BME280;46837;52.446;-1.930;2022-08-21T03:51:09;100013.87;;;16.06;72.10
60642;BME280;46837;52.446;-1.930;2022-08-21T03:52:09;100008.56;;;16.04;72.17
60642;BME280;46837;52.446;-1.930;2022-08-21T03:53:11;100010.59;;;16.03;72.32
60642;BME280;46837;52.446;-1.930;2022-08-21T03:54:09;100011.30;;;16.03;72.29
60642;BME280;46837;52.446;-1.930;2022-08-21T03:55:09;100012.18;;;16.05;72.25
60642;BME280;46837;52.446;-1.930;2022-08-21T03:56:09;100008.38;;;16.03;72.26
60642;BME280;46837;52.446;-1.930;2022-08-21T03:57:09;100011.37;;;16.02;72.35
60642;BME280;46837;52.446;-1.930;2022-08-21T03:58:09;100013.53;;;16.01;72.37
60642;BME280;46837;52.446;-1.930;2022-08-21T03:59:09;100011.00;;;15.99;72.52
60642;BME280;46837;52.446;-1.930;2022-08-21T04:00:11;100009.48;;;16.03;72.39
60642;BME280;46837;52.446;-1.930;2022-08-21T04:01:09;100010.52;;;16.04;72.29
60642;BME280;46837;52.446;-1.930;2022-08-21T04:02:09;100017.14;;;16.03;72.37
60642;BME280;46837;52.446;-1.930;2022-08-21T04:03:09;100016.39;;;15.99;72.49
60642;BME280;46837;52.446;-1.930;2022-08-21T04:04:09;100014.50;;;15.97;72.54
60642;BME280;46837;52.446;-1.930;2022-08-21T04:05:09;100014.76;;;15.98;72.59
60642;BME280;46837;52.446;-1.930;2022-08-21T04:06:09;100014.11;;;15.93;72.82
60642;BME280;46837;52.446;-1.930;2022-08-21T04:07:09;100016.64;;;15.93;72.82
60642;BME280;46837;52.446;-1.930;2022-08-21T04:08:09;100016.49;;;15.95;72.79
60642;BME280;46837;52.446;-1.930;2022-08-21T04:09:09;100018.04;;;15.94;72.75
60642;BME280;46837;52.446;-1.930;2022-08-21T04:10:09;100017.59;;;15.95;72.79
60642;BME280;46837;52.446;-1.930;2022-08-21T04:11:09;100015.38;;;15.97;72.64
60642;BME280;46837;52.446;-1.930;2022-08-21T04:12:09;100022.07;;;15.99;72.52
60642;BME280;46837;52.446;-1.930;2022-08-21T04:13:09;100024.02;;;15.98;72.54
60642;BME280;46837;52.446;-1.930;2022-08-21T04:14:09;100025.38;;;15.99;72.54
60642;BME280;46837;52.446;-1.930;2022-08-21T04:15:09;100023.64;;;15.97;72.61
60642;BME280;46837;52.446;-1.930;2022-08-21T04:16:09;100026.89;;;15.95;72.68
60642;BME280;46837;52.446;-1.930;2022-08-21T04:17:09;100024.86;;;15.95;72.75
60642;BME280;46837;52.446;-1.930;2022-08-21T04:18:09;100026.56;;;15.98;72.61
60642;BME280;46837;52.446;-1.930;2022-08-21T04:19:11;100028.20;;;15.96;72.62
60642;BME280;46837;52.446;-1.930;2022-08-21T04:20:09;100022.70;;;15.98;72.54
60642;BME280;46837;52.446;-1.930;2022-08-21T04:21:09;100030.70;;;15.98;72.54
60642;BME280;46837;52.446;-1.930;2022-08-21T04:22:09;100027.65;;;15.99;72.46
60642;BME280;46837;52.446;-1.930;2022-08-21T04:23:09;100031.23;;;15.99;72.54
60642;BME280;46837;52.446;-1.930;2022-08-21T04:24:09;100030.64;;;15.93;72.72
60642;BME280;46837;52.446;-1.930;2022-08-21T04:25:09;100032.98;;;15.92;72.74
60642;BME280;46837;52.446;-1.930;2022-08-21T04:26:09;100032.89;;;15.90;72.82
60642;BME280;46837;52.446;-1.930;2022-08-21T04:27:09;100038.86;;;15.93;72.82
60642;BME280;46837;52.446;-1.930;2022-08-21T04:28:09;100036.88;;;15.93;72.74
60642;BME280;46837;52.446;-1.930;2022-08-21T04:29:09;100037.39;;;15.94;72.74
60642;BME280;46837;52.446;-1.930;2022-08-21T04:30:09;100037.65;;;15.86;73.04
60642;BME280;46837;52.446;-1.930;2022-08-21T04:31:09;100041.03;;;15.89;73.05
60642;BME280;46837;52.446;-1.930;2022-08-21T04:32:09;100037.32;;;15.92;72.85
60642;BME280;46837;52.446;-1.930;2022-08-21T04:33:09;100038.47;;;15.95;72.74
60642;BME280;46837;52.446;-1.930;2022-08-21T04:34:09;100036.11;;;15.87;73.14
60642;BME280;46837;52.446;-1.930;2022-08-21T04:35:09;100039.16;;;15.86;73.17
60642;BME280;46837;52.446;-1.930;2022-08-21T04:36:09;100034.89;;;15.87;73.14
60642;BME280;46837;52.446;-1.930;2022-08-21T04:37:09;100038.66;;;15.92;72.99
60642;BME280;46837;52.446;-1.930;2022-08-21T04:38:09;100038.66;;;15.92;72.92
60642;BME280;46837;52.446;-1.930;2022-08-21T04:39:09;100039.92;;;15.94;72.84
60642;BME280;46837;52.446;-1.930;2022-08-21T04:40:09;100040.73;;;15.93;72.86
60642;BME280;46837;52.446;-1.930;2022-08-21T04:41:09;100042.50;;;15.95;72.78
60642;BME280;46837;52.446;-1.930;2022-08-21T04:42:09;100040.68;;;15.95;72.75
60642;BME280;46837;52.446;-1.930;2022-08-21T04:43:09;100041.27;;;15.96;72.66
60642;BME280;46837;52.446;-1.930;2022-08-21T04:44:09;100044.54;;;15.95;72.72
60642;BME280;46837;52.446;-1.930;2022-08-21T04:45:09;100046.16;;;15.94;72.78
60642;BME280;46837;52.446;-1.930;2022-08-21T04:46:09;100049.71;;;15.93;72.84
60642;BME280;46837;52.446;-1.930;2022-08-21T04:47:09;100047.00;;;15.96;72.69
60642;BME280;46837;52.446;-1.930;2022-08-21T04:48:09;100049.79;;;15.94;72.76
60642;BME280;46837;52.446;-1.930;2022-08-21T04:49:09;100052.23;;;15.97;72.64
60642;BME280;46837;52.446;-1.930;2022-08-21T04:50:09;100049.55;;;15.97;72.58
60642;BME280;46837;52.446;-1.930;2022-08-21T04:51:14;100053.14;;;15.97;72.62
60642;BME280;46837;52.446;-1.930;2022-08-21T04:52:09;100052.43;;;15.92;72.84
60642;BME280;46837;52.446;-1.930;2022-08-21T04:53:13;100054.94;;;15.93;72.84
60642;BME280;46837;52.446;-1.930;2022-08-21T04:54:14;100054.03;;;15.92;72.84
60642;BME280;46837;52.446;-1.930;2022-08-21T04:55:09;100050.30;;;15.88;72.94
60642;BME280;46837;52.446;-1.930;2022-08-21T04:56:14;100049.97;;;15.91;72.88
60642;BME280;46837;52.446;-1.930;2022-08-21T04:57:09;100051.57;;;15.88;72.96
60642;BME280;46837;52.446;-1.930;2022-08-21T04:58:09;100052.36;;;15.86;73.01
60642;BME280;46837;52.446;-1.930;2022-08-21T04:59:13;100049.15;;;15.88;72.97
60642;BME280;46837;52.446;-1.930;2022-08-21T05:00:09;100054.56;;;15.87;73.01
60642;BME280;46837;52.446;-1.930;2022-08-21T05:01:13;100050.33;;;15.81;73.15
60642;BME280;46837;52.446;-1.930;2022-08-21T05:02:09;100053.57;;;15.85;73.07
60642;BME280;46837;52.446;-1.930;2022-08-21T05:03:09;100056.96;;;15.80;73.25
60642;BME280;46837;52.446;-1.930;2022-08-21T05:04:12;100056.98;;;15.83;73.19
60642;BME280;46837;52.446;-1.930;2022-08-21T05:05:09;100055.68;;;15.79;73.22
60642;BME280;46837;52.446;-1.930;2022-08-21T05:06:10;100056.21;;;15.82;73.14
60642;BME280;46837;52.446;-1.930;2022-08-21T05:07:11;100059.70;;;15.84;73.04
60642;BME280;46837;52.446;-1.930;2022-08-21T05:08:09;100056.27;;;15.82;73.06
60642;BME280;46837;52.446;-1.930;2022-08-21T05:09:09;100060.77;;;15.80;73.17